sensor_id;sensor_type;location;lat;lon;timestamp;temperature;humidity
11083;DHT22;5595;50.186;8.468;2023-03-01T00:04:43;0.00;99.90
11083;DHT22;5595;50.186;8.468;2023-03-01T00:07:10;0.20;99.90
11083;DHT22;5595;50.186;8.468;2023-03-01T00:09:39;0.90;99.90
11083;DHT22;5595;50.186;8.468;2023-03-01T00:12:11;0.00;99.90
11083;DHT22;5595;50.186;8.468;2023-03-01T00:14:43;0.50;99.90
11083;DHT22;5595;50.186;8.468;2023-03-01T00:34:21;0.10;99.90
11083;DHT22;5595;50.186;8.468;2023-03-01T00:36:48;0.10;99.90
11083;DHT22;5595;50.186;8.468;2023-03-01T01:07:46;0.10;99.90
11083;DHT22;5595;50.186;8.468;2023-03-01T01:10:16;0.20;99.90
11083;DHT22;5595;50.186;8.468;2023-03-01T01:12:47;0.00;99.90
11083;DHT22;5595;50.186;8.468;2023-03-01T01:15:14;0.30;99.90
11083;DHT22;5595;50.186;8.468;2023-03-01T01:41:02;0.30;99.90
11083;DHT22;5595;50.186;8.468;2023-03-01T01:43:31;0.40;99.90
11083;DHT22;5595;50.186;8.468;2023-03-01T01:56:40;0.40;99.90
11083;DHT22;5595;50.186;8.468;2023-03-01T01:59:12;1.40;99.90
11083;DHT22;5595;50.186;8.468;2023-03-01T02:01:39;0.60;99.90
11083;DHT22;5595;50.186;8.468;2023-03-01T02:04:06;2.10;99.90
11083;DHT22;5595;50.186;8.468;2023-03-01T02:06:44;0.80;99.90
11083;DHT22;5595;50.186;8.468;2023-03-01T02:09:18;0.40;99.90
11083;DHT22;5595;50.186;8.468;2023-03-01T02:11:52;1.70;99.90
11083;DHT22;5595;50.186;8.468;2023-03-01T02:14:23;0.70;99.90
11083;DHT22;5595;50.186;8.468;2023-03-01T02:16:53;1.50;99.90
11083;DHT22;5595;50.186;8.468;2023-03-01T02:42:45;0.20;99.90
11083;DHT22;5595;50.186;8.468;2023-03-01T02:45:14;0.30;99.90
11083;DHT22;5595;50.186;8.468;2023-03-01T02:47:41;0.20;99.90
11083;DHT22;5595;50.186;8.468;2023-03-01T02:50:22;0.20;99.90
11083;DHT22;5595;50.186;8.468;2023-03-01T02:52:57;0.40;99.90
11083;DHT22;5595;50.186;8.468;2023-03-01T02:55:25;0.30;99.90
11083;DHT22;5595;50.186;8.468;2023-03-01T02:57:54;0.20;99.90
11083;DHT22;5595;50.186;8.468;2023-03-01T03:00:26;0.20;99.90
11083;DHT22;5595;50.186;8.468;2023-03-01T03:02:55;0.60;99.90
11083;DHT22;5595;50.186;8.468;2023-03-01T03:05:27;0.30;99.90
11083;DHT22;5595;50.186;8.468;2023-03-01T03:07:54;0.60;99.90
11083;DHT22;5595;50.186;8.468;2023-03-01T03:10:24;0.30;99.90
11083;DHT22;5595;50.186;8.468;2023-03-01T03:12:51;0.90;99.90
11083;DHT22;5595;50.186;8.468;2023-03-01T03:15:20;0.40;99.90
11083;DHT22;5595;50.186;8.468;2023-03-01T03:17:48;0.20;99.90
11083;DHT22;5595;50.186;8.468;2023-03-01T03:20:17;0.20;99.90
11083;DHT22;5595;50.186;8.468;2023-03-01T03:22:46;0.20;99.90
11083;DHT22;5595;50.186;8.468;2023-03-01T03:25:15;0.20;99.90
11083;DHT22;5595;50.186;8.468;2023-03-01T03:27:47;0.20;99.90
11083;DHT22;5595;50.186;8.468;2023-03-01T03:30:15;0.20;99.90
11083;DHT22;5595;50.186;8.468;2023-03-01T03:32:46;0.20;99.90
11083;DHT22;5595;50.186;8.468;2023-03-01T03:35:19;0.50;99.90
11083;DHT22;5595;50.186;8.468;2023-03-01T03:37:46;0.10;99.90
11083;DHT22;5595;50.186;8.468;2023-03-01T03:40:31;0.20;99.90
11083;DHT22;5595;50.186;8.468;2023-03-01T03:42:58;0.10;99.90
11083;DHT22;5595;50.186;8.468;2023-03-01T03:45:25;0.10;99.90
11083;DHT22;5595;50.186;8.468;2023-03-01T03:47:54;0.10;99.90
11083;DHT22;5595;50.186;8.468;2023-03-01T03:50:21;0.10;99.90
11083;DHT22;5595;50.186;8.468;2023-03-01T03:52:48;0.00;99.90
11083;DHT22;5595;50.186;8.468;2023-03-01T03:55:15;0.10;99.90
11083;DHT22;5595;50.186;8.468;2023-03-01T03:57:46;0.00;99.90
11083;DHT22;5595;50.186;8.468;2023-03-01T04:37:57;-0.20;99.90
11083;DHT22;5595;50.186;8.468;2023-03-01T04:40:24;-0.10;99.90
11083;DHT22;5595;50.186;8.468;2023-03-01T04:42:51;-0.20;99.90
11083;DHT22;5595;50.186;8.468;2023-03-01T04:45:18;0.00;99.90
11083;DHT22;5595;50.186;8.468;2023-03-01T04:47:46;0.00;99.90
11083;DHT22;5595;50.186;8.468;2023-03-01T04:50:15;-0.20;99.90
11083;DHT22;5595;50.186;8.468;2023-03-01T04:52:43;-0.20;99.90
11083;DHT22;5595;50.186;8.468;2023-03-01T04:55:11;0.10;99.90
11083;DHT22;5595;50.186;8.468;2023-03-01T04:57:39;-0.20;99.90
11083;DHT22;5595;50.186;8.468;2023-03-01T05:00:08;-0.10;99.90
11083;DHT22;5595;50.186;8.468;2023-03-01T05:02:46;-0.20;99.90
11083;DHT22;5595;50.186;8.468;2023-03-01T05:05:14;-0.20;99.90
11083;DHT22;5595;50.186;8.468;2023-03-01T05:07:41;0.00;99.90
11083;DHT22;5595;50.186;8.468;2023-03-01T05:10:11;-0.10;99.90
11083;DHT22;5595;50.186;8.468;2023-03-01T05:12:38;-0.10;99.90
11083;DHT22;5595;50.186;8.468;2023-03-01T05:15:06;-0.30;99.90
11083;DHT22;5595;50.186;8.468;2023-03-01T05:17:35;-0.10;99.90
11083;DHT22;5595;50.186;8.468;2023-03-01T05:20:03;0.00;99.90
11083;DHT22;5595;50.186;8.468;2023-03-01T05:22:42;-0.40;99.90
11083;DHT22;5595;50.186;8.468;2023-03-01T05:25:17;-1.30;99.90
11083;DHT22;5595;50.186;8.468;2023-03-01T05:27:50;-0.30;99.90
11083;DHT22;5595;50.186;8.468;2023-03-01T05:30:18;0.60;99.90
11083;DHT22;5595;50.186;8.468;2023-03-01T05:32:47;-0.10;99.90
11083;DHT22;5595;50.186;8.468;2023-03-01T05:35:16;0.00;99.90
11083;DHT22;5595;50.186;8.468;2023-03-01T05:58:42;0.10;99.90
11083;DHT22;5595;50.186;8.468;2023-03-01T06:01:11;0.50;99.90
11083;DHT22;5595;50.186;8.468;2023-03-01T06:03:39;0.20;99.90
11083;DHT22;5595;50.186;8.468;2023-03-01T06:06:06;1.10;99.90
11083;DHT22;5595;50.186;8.468;2023-03-01T06:08:33;0.40;99.90
11083;DHT22;5595;50.186;8.468;2023-03-01T06:11:00;0.30;99.90
11083;DHT22;5595;50.186;8.468;2023-03-01T06:13:29;0.20;99.90
11083;DHT22;5595;50.186;8.468;2023-03-01T06:15:57;1.10;99.90
11083;DHT22;5595;50.186;8.468;2023-03-01T06:18:24;0.30;99.90
11083;DHT22;5595;50.186;8.468;2023-03-01T06:20:55;0.30;99.90
11083;DHT22;5595;50.186;8.468;2023-03-01T06:23:22;0.30;99.90
11083;DHT22;5595;50.186;8.468;2023-03-01T06:25:50;0.30;99.90
11083;DHT22;5595;50.186;8.468;2023-03-01T06:28:17;0.30;99.90
11083;DHT22;5595;50.186;8.468;2023-03-01T06:30:43;0.30;99.90
11083;DHT22;5595;50.186;8.468;2023-03-01T06:33:13;0.40;99.90
11083;DHT22;5595;50.186;8.468;2023-03-01T06:35:40;0.40;99.90
11083;DHT22;5595;50.186;8.468;2023-03-01T06:38:06;0.30;99.90
11083;DHT22;5595;50.186;8.468;2023-03-01T06:40:34;0.30;99.90
11083;DHT22;5595;50.186;8.468;2023-03-01T06:43:01;0.70;99.90
11083;DHT22;5595;50.186;8.468;2023-03-01T06:45:28;0.30;99.90
11083;DHT22;5595;50.186;8.468;2023-03-01T06:48:02;0.30;99.90
11083;DHT22;5595;50.186;8.468;2023-03-01T06:50:31;0.30;99.90
11083;DHT22;5595;50.186;8.468;2023-03-01T06:52:59;0.70;99.90
11083;DHT22;5595;50.186;8.468;2023-03-01T06:55:26;0.70;99.90
11083;DHT22;5595;50.186;8.468;2023-03-01T06:57:54;0.10;99.90
11083;DHT22;5595;50.186;8.468;2023-03-01T07:00:23;0.30;99.90
11083;DHT22;5595;50.186;8.468;2023-03-01T07:02:51;0.30;99.90
11083;DHT22;5595;50.186;8.468;2023-03-01T07:05:18;1.20;99.90
11083;DHT22;5595;50.186;8.468;2023-03-01T07:07:47;0.40;99.90
11083;DHT22;5595;50.186;8.468;2023-03-01T07:10:14;0.50;99.90
11083;DHT22;5595;50.186;8.468;2023-03-01T07:12:41;0.20;99.90
11083;DHT22;5595;50.186;8.468;2023-03-01T07:15:11;0.90;99.90
11083;DHT22;5595;50.186;8.468;2023-03-01T07:17:40;0.80;99.90
11083;DHT22;5595;50.186;8.468;2023-03-01T07:20:08;1.00;99.90
11083;DHT22;5595;50.186;8.468;2023-03-01T07:22:36;1.20;99.90
11083;DHT22;5595;50.186;8.468;2023-03-01T07:25:05;1.70;99.90
11083;DHT22;5595;50.186;8.468;2023-03-01T07:27:32;1.40;99.90
11083;DHT22;5595;50.186;8.468;2023-03-01T07:29:59;1.70;99.90
11083;DHT22;5595;50.186;8.468;2023-03-01T07:32:26;1.70;99.90
11083;DHT22;5595;50.186;8.468;2023-03-01T07:34:52;1.80;99.90
11083;DHT22;5595;50.186;8.468;2023-03-01T07:37:19;1.90;99.90
11083;DHT22;5595;50.186;8.468;2023-03-01T07:39:47;2.10;99.90
11083;DHT22;5595;50.186;8.468;2023-03-01T07:42:15;2.00;99.90
11083;DHT22;5595;50.186;8.468;2023-03-01T07:44:42;3.60;99.90
11083;DHT22;5595;50.186;8.468;2023-03-01T07:47:09;2.00;99.90
11083;DHT22;5595;50.186;8.468;2023-03-01T07:49:36;2.30;99.90
11083;DHT22;5595;50.186;8.468;2023-03-01T07:52:04;1.90;99.90
11083;DHT22;5595;50.186;8.468;2023-03-01T07:54:31;1.90;99.90
11083;DHT22;5595;50.186;8.468;2023-03-01T07:56:58;1.90;99.90
11083;DHT22;5595;50.186;8.468;2023-03-01T07:59:28;1.80;99.90
11083;DHT22;5595;50.186;8.468;2023-03-01T08:01:56;1.90;99.90
11083;DHT22;5595;50.186;8.468;2023-03-01T08:04:23;1.80;99.90
11083;DHT22;5595;50.186;8.468;2023-03-01T08:06:52;1.80;99.90
11083;DHT22;5595;50.186;8.468;2023-03-01T08:09:19;3.00;99.90
11083;DHT22;5595;50.186;8.468;2023-03-01T08:11:46;1.90;99.90
11083;DHT22;5595;50.186;8.468;2023-03-01T08:14:13;1.90;99.90
11083;DHT22;5595;50.186;8.468;2023-03-01T08:16:42;2.20;99.90
11083;DHT22;5595;50.186;8.468;2023-03-01T08:19:11;2.00;99.90
11083;DHT22;5595;50.186;8.468;2023-03-01T08:21:38;2.30;99.90
11083;DHT22;5595;50.186;8.468;2023-03-01T08:24:06;2.00;99.90
11083;DHT22;5595;50.186;8.468;2023-03-01T08:26:36;2.00;99.90
11083;DHT22;5595;50.186;8.468;2023-03-01T08:29:03;2.00;99.90
11083;DHT22;5595;50.186;8.468;2023-03-01T08:31:32;1.80;99.90
11083;DHT22;5595;50.186;8.468;2023-03-01T08:34:05;2.10;99.90
11083;DHT22;5595;50.186;8.468;2023-03-01T08:36:35;2.70;99.90
11083;DHT22;5595;50.186;8.468;2023-03-01T08:39:02;2.20;99.90
11083;DHT22;5595;50.186;8.468;2023-03-01T08:41:33;2.20;99.90
11083;DHT22;5595;50.186;8.468;2023-03-01T08:44:00;2.20;99.90
11083;DHT22;5595;50.186;8.468;2023-03-01T08:46:27;2.70;99.90
11083;DHT22;5595;50.186;8.468;2023-03-01T08:48:56;2.30;99.90
11083;DHT22;5595;50.186;8.468;2023-03-01T08:51:27;2.40;99.90
11083;DHT22;5595;50.186;8.468;2023-03-01T08:53:55;2.50;99.90
11083;DHT22;5595;50.186;8.468;2023-03-01T08:56:24;2.50;99.90
11083;DHT22;5595;50.186;8.468;2023-03-01T08:58:51;2.60;99.90
11083;DHT22;5595;50.186;8.468;2023-03-01T09:01:19;2.80;99.90
11083;DHT22;5595;50.186;8.468;2023-03-01T09:03:46;2.70;99.90
11083;DHT22;5595;50.186;8.468;2023-03-01T09:06:16;3.50;99.90
11083;DHT22;5595;50.186;8.468;2023-03-01T09:08:46;2.60;99.90
11083;DHT22;5595;50.186;8.468;2023-03-01T09:11:15;2.70;99.90
11083;DHT22;5595;50.186;8.468;2023-03-01T09:13:42;2.80;99.90
11083;DHT22;5595;50.186;8.468;2023-03-01T09:16:11;2.80;99.90
11083;DHT22;5595;50.186;8.468;2023-03-01T09:18:38;2.80;99.90
11083;DHT22;5595;50.186;8.468;2023-03-01T09:21:07;2.80;99.90
11083;DHT22;5595;50.186;8.468;2023-03-01T09:23:34;2.90;99.90
11083;DHT22;5595;50.186;8.468;2023-03-01T09:26:05;3.00;99.90
11083;DHT22;5595;50.186;8.468;2023-03-01T09:28:34;3.10;99.90
11083;DHT22;5595;50.186;8.468;2023-03-01T09:31:01;3.20;99.90
11083;DHT22;5595;50.186;8.468;2023-03-01T09:33:30;3.20;99.90
11083;DHT22;5595;50.186;8.468;2023-03-01T09:35:57;3.30;99.90
11083;DHT22;5595;50.186;8.468;2023-03-01T09:38:24;3.40;99.90
11083;DHT22;5595;50.186;8.468;2023-03-01T09:40:51;3.20;99.90
11083;DHT22;5595;50.186;8.468;2023-03-01T09:43:23;3.20;99.90
11083;DHT22;5595;50.186;8.468;2023-03-01T09:45:54;3.20;99.90
11083;DHT22;5595;50.186;8.468;2023-03-01T09:48:25;3.30;99.90
11083;DHT22;5595;50.186;8.468;2023-03-01T09:50:52;3.30;99.90
11083;DHT22;5595;50.186;8.468;2023-03-01T09:53:21;3.40;99.90
11083;DHT22;5595;50.186;8.468;2023-03-01T09:55:53;3.60;99.90
11083;DHT22;5595;50.186;8.468;2023-03-01T09:58:47;3.70;99.90
11083;DHT22;5595;50.186;8.468;2023-03-01T10:01:29;3.80;99.90
11083;DHT22;5595;50.186;8.468;2023-03-01T10:04:10;3.80;99.90
11083;DHT22;5595;50.186;8.468;2023-03-01T10:06:45;3.80;99.90
11083;DHT22;5595;50.186;8.468;2023-03-01T10:09:15;3.50;99.90
11083;DHT22;5595;50.186;8.468;2023-03-01T10:11:46;3.90;99.90
11083;DHT22;5595;50.186;8.468;2023-03-01T10:14:27;3.90;99.90
11083;DHT22;5595;50.186;8.468;2023-03-01T10:16:57;4.00;99.90
11083;DHT22;5595;50.186;8.468;2023-03-01T10:19:32;4.10;99.90
11083;DHT22;5595;50.186;8.468;2023-03-01T10:22:05;4.10;99.90
11083;DHT22;5595;50.186;8.468;2023-03-01T10:24:37;4.30;99.90
11083;DHT22;5595;50.186;8.468;2023-03-01T10:27:07;4.40;99.90
11083;DHT22;5595;50.186;8.468;2023-03-01T10:29:42;4.40;99.90
11083;DHT22;5595;50.186;8.468;2023-03-01T10:32:11;4.20;99.90
11083;DHT22;5595;50.186;8.468;2023-03-01T10:34:37;4.50;99.90
11083;DHT22;5595;50.186;8.468;2023-03-01T10:37:10;4.50;99.90
11083;DHT22;5595;50.186;8.468;2023-03-01T10:39:55;4.70;99.90
11083;DHT22;5595;50.186;8.468;2023-03-01T10:42:27;4.70;99.90
11083;DHT22;5595;50.186;8.468;2023-03-01T10:44:57;4.70;99.90
11083;DHT22;5595;50.186;8.468;2023-03-01T10:47:25;4.70;99.90
11083;DHT22;5595;50.186;8.468;2023-03-01T10:50:01;4.70;99.90
11083;DHT22;5595;50.186;8.468;2023-03-01T10:52:34;4.80;99.90
11083;DHT22;5595;50.186;8.468;2023-03-01T10:55:04;4.80;99.90
11083;DHT22;5595;50.186;8.468;2023-03-01T10:57:50;4.70;99.90
11083;DHT22;5595;50.186;8.468;2023-03-01T11:00:46;4.80;99.90
11083;DHT22;5595;50.186;8.468;2023-03-01T11:03:16;4.90;99.90
11083;DHT22;5595;50.186;8.468;2023-03-01T11:05:53;4.90;99.90
11083;DHT22;5595;50.186;8.468;2023-03-01T11:08:35;5.00;99.90
11083;DHT22;5595;50.186;8.468;2023-03-01T11:11:25;4.90;99.90
11083;DHT22;5595;50.186;8.468;2023-03-01T11:13:59;4.90;99.90
11083;DHT22;5595;50.186;8.468;2023-03-01T11:16:34;5.00;99.90
11083;DHT22;5595;50.186;8.468;2023-03-01T11:19:18;5.20;99.90
11083;DHT22;5595;50.186;8.468;2023-03-01T11:22:02;5.20;99.90
11083;DHT22;5595;50.186;8.468;2023-03-01T11:24:33;5.30;99.90
11083;DHT22;5595;50.186;8.468;2023-03-01T11:27:04;5.40;99.60
11083;DHT22;5595;50.186;8.468;2023-03-01T11:29:37;5.30;99.80
11083;DHT22;5595;50.186;8.468;2023-03-01T11:32:09;5.30;99.60
11083;DHT22;5595;50.186;8.468;2023-03-01T11:34:42;5.40;99.50
11083;DHT22;5595;50.186;8.468;2023-03-01T11:37:21;5.60;99.70
11083;DHT22;5595;50.186;8.468;2023-03-01T11:39:56;5.60;99.30
11083;DHT22;5595;50.186;8.468;2023-03-01T11:42:29;5.30;99.00
11083;DHT22;5595;50.186;8.468;2023-03-01T11:45:02;5.50;98.70
11083;DHT22;5595;50.186;8.468;2023-03-01T11:50:32;5.60;98.40
11083;DHT22;5595;50.186;8.468;2023-03-01T11:53:13;5.70;98.30
11083;DHT22;5595;50.186;8.468;2023-03-01T11:55:58;5.70;97.70
11083;DHT22;5595;50.186;8.468;2023-03-01T11:58:48;5.80;97.60
11083;DHT22;5595;50.186;8.468;2023-03-01T12:01:32;6.00;97.60
11083;DHT22;5595;50.186;8.468;2023-03-01T12:04:23;5.90;97.80
11083;DHT22;5595;50.186;8.468;2023-03-01T12:06:57;6.00;97.60
11083;DHT22;5595;50.186;8.468;2023-03-01T12:09:36;6.00;97.00
11083;DHT22;5595;50.186;8.468;2023-03-01T12:12:33;5.80;96.70
11083;DHT22;5595;50.186;8.468;2023-03-01T12:15:23;6.00;96.40
11083;DHT22;5595;50.186;8.468;2023-03-01T12:18:20;6.10;95.40
11083;DHT22;5595;50.186;8.468;2023-03-01T12:21:01;6.00;95.30
11083;DHT22;5595;50.186;8.468;2023-03-01T12:23:56;6.10;95.70
11083;DHT22;5595;50.186;8.468;2023-03-01T12:26:30;6.20;96.20
11083;DHT22;5595;50.186;8.468;2023-03-01T12:29:24;6.50;96.30
11083;DHT22;5595;50.186;8.468;2023-03-01T12:32:17;6.50;96.30
11083;DHT22;5595;50.186;8.468;2023-03-01T12:37:53;6.40;95.90
11083;DHT22;5595;50.186;8.468;2023-03-01T12:40:33;6.40;95.40
11083;DHT22;5595;50.186;8.468;2023-03-01T12:43:10;6.40;95.60
11083;DHT22;5595;50.186;8.468;2023-03-01T12:45:54;6.60;96.00
11083;DHT22;5595;50.186;8.468;2023-03-01T12:48:36;6.40;96.00
11083;DHT22;5595;50.186;8.468;2023-03-01T12:51:08;6.50;95.70
11083;DHT22;5595;50.186;8.468;2023-03-01T12:53:40;6.40;95.60
11083;DHT22;5595;50.186;8.468;2023-03-01T12:56:10;6.40;95.60
11083;DHT22;5595;50.186;8.468;2023-03-01T12:58:41;6.20;95.80
11083;DHT22;5595;50.186;8.468;2023-03-01T13:01:19;6.50;96.20
11083;DHT22;5595;50.186;8.468;2023-03-01T13:04:06;6.60;96.00
11083;DHT22;5595;50.186;8.468;2023-03-01T13:06:42;6.60;95.50
11083;DHT22;5595;50.186;8.468;2023-03-01T13:09:18;6.80;95.60
11083;DHT22;5595;50.186;8.468;2023-03-01T13:11:46;6.70;95.50
11083;DHT22;5595;50.186;8.468;2023-03-01T13:14:45;6.80;95.20
11083;DHT22;5595;50.186;8.468;2023-03-01T13:17:33;6.60;94.70
11083;DHT22;5595;50.186;8.468;2023-03-01T13:20:00;6.70;94.80
11083;DHT22;5595;50.186;8.468;2023-03-01T13:22:32;6.70;95.00
11083;DHT22;5595;50.186;8.468;2023-03-01T13:25:13;6.70;95.00
11083;DHT22;5595;50.186;8.468;2023-03-01T13:27:41;6.90;94.80
11083;DHT22;5595;50.186;8.468;2023-03-01T13:33:37;6.70;93.90
11083;DHT22;5595;50.186;8.468;2023-03-01T13:36:07;6.70;93.80
11083;DHT22;5595;50.186;8.468;2023-03-01T13:38:44;6.70;93.10
11083;DHT22;5595;50.186;8.468;2023-03-01T13:41:14;6.70;93.30
11083;DHT22;5595;50.186;8.468;2023-03-01T13:43:43;6.70;93.30
11083;DHT22;5595;50.186;8.468;2023-03-01T13:46:16;6.70;93.40
11083;DHT22;5595;50.186;8.468;2023-03-01T13:48:47;6.70;93.70
11083;DHT22;5595;50.186;8.468;2023-03-01T13:51:16;6.80;93.80
11083;DHT22;5595;50.186;8.468;2023-03-01T13:53:48;6.90;93.90
11083;DHT22;5595;50.186;8.468;2023-03-01T13:56:19;6.90;93.50
11083;DHT22;5595;50.186;8.468;2023-03-01T13:58:51;6.90;93.40
11083;DHT22;5595;50.186;8.468;2023-03-01T14:01:24;6.90;93.50
11083;DHT22;5595;50.186;8.468;2023-03-01T14:03:52;6.90;93.50
11083;DHT22;5595;50.186;8.468;2023-03-01T14:06:21;6.90;93.50
11083;DHT22;5595;50.186;8.468;2023-03-01T14:08:50;6.80;92.90
11083;DHT22;5595;50.186;8.468;2023-03-01T14:11:52;6.80;93.10
11083;DHT22;5595;50.186;8.468;2023-03-01T14:14:45;6.80;93.40
11083;DHT22;5595;50.186;8.468;2023-03-01T14:20:19;7.00;93.50
11083;DHT22;5595;50.186;8.468;2023-03-01T14:22:50;6.90;93.10
11083;DHT22;5595;50.186;8.468;2023-03-01T14:25:24;6.70;93.10
11083;DHT22;5595;50.186;8.468;2023-03-01T14:27:56;6.80;93.20
11083;DHT22;5595;50.186;8.468;2023-03-01T14:30:25;6.80;93.20
11083;DHT22;5595;50.186;8.468;2023-03-01T14:32:54;6.90;93.40
11083;DHT22;5595;50.186;8.468;2023-03-01T14:35:23;6.80;93.30
11083;DHT22;5595;50.186;8.468;2023-03-01T14:37:50;6.80;93.30
11083;DHT22;5595;50.186;8.468;2023-03-01T14:40:24;6.90;93.30
11083;DHT22;5595;50.186;8.468;2023-03-01T14:42:53;6.90;93.10
11083;DHT22;5595;50.186;8.468;2023-03-01T14:45:23;6.90;92.90
11083;DHT22;5595;50.186;8.468;2023-03-01T14:47:51;6.90;92.50
11083;DHT22;5595;50.186;8.468;2023-03-01T14:50:26;6.80;92.60
11083;DHT22;5595;50.186;8.468;2023-03-01T14:52:55;6.90;92.90
11083;DHT22;5595;50.186;8.468;2023-03-01T14:55:26;6.60;92.70
11083;DHT22;5595;50.186;8.468;2023-03-01T14:57:59;6.90;92.50
11083;DHT22;5595;50.186;8.468;2023-03-01T15:00:28;6.80;92.20
11083;DHT22;5595;50.186;8.468;2023-03-01T15:03:00;6.70;92.30
11083;DHT22;5595;50.186;8.468;2023-03-01T15:05:32;6.60;92.20
11083;DHT22;5595;50.186;8.468;2023-03-01T15:08:01;6.50;92.10
11083;DHT22;5595;50.186;8.468;2023-03-01T15:10:31;6.50;92.20
11083;DHT22;5595;50.186;8.468;2023-03-01T15:13:11;6.50;92.20
11083;DHT22;5595;50.186;8.468;2023-03-01T15:15:41;6.40;92.30
11083;DHT22;5595;50.186;8.468;2023-03-01T15:18:16;6.50;92.10
11083;DHT22;5595;50.186;8.468;2023-03-01T15:20:44;6.40;92.10
11083;DHT22;5595;50.186;8.468;2023-03-01T15:23:20;6.40;92.30
11083;DHT22;5595;50.186;8.468;2023-03-01T15:25:48;6.40;92.30
11083;DHT22;5595;50.186;8.468;2023-03-01T15:28:25;6.50;92.50
11083;DHT22;5595;50.186;8.468;2023-03-01T15:30:55;6.30;92.80
11083;DHT22;5595;50.186;8.468;2023-03-01T15:33:31;6.00;92.70
11083;DHT22;5595;50.186;8.468;2023-03-01T15:35:59;6.30;93.00
11083;DHT22;5595;50.186;8.468;2023-03-01T15:38:53;6.20;93.00
11083;DHT22;5595;50.186;8.468;2023-03-01T15:41:25;6.20;93.20
11083;DHT22;5595;50.186;8.468;2023-03-01T15:43:54;6.10;93.20
11083;DHT22;5595;50.186;8.468;2023-03-01T15:46:25;6.10;93.30
11083;DHT22;5595;50.186;8.468;2023-03-01T15:48:54;6.10;93.40
11083;DHT22;5595;50.186;8.468;2023-03-01T15:51:28;6.00;93.40
11083;DHT22;5595;50.186;8.468;2023-03-01T15:53:59;6.00;93.50
11083;DHT22;5595;50.186;8.468;2023-03-01T15:56:27;5.90;93.60
11083;DHT22;5595;50.186;8.468;2023-03-01T15:58:59;5.80;93.70
11083;DHT22;5595;50.186;8.468;2023-03-01T16:01:27;5.70;93.80
11083;DHT22;5595;50.186;8.468;2023-03-01T16:03:54;5.70;94.00
11083;DHT22;5595;50.186;8.468;2023-03-01T16:06:22;5.60;93.90
11083;DHT22;5595;50.186;8.468;2023-03-01T16:08:49;5.60;94.00
11083;DHT22;5595;50.186;8.468;2023-03-01T16:11:20;5.50;94.10
11083;DHT22;5595;50.186;8.468;2023-03-01T16:13:47;5.30;94.10
11083;DHT22;5595;50.186;8.468;2023-03-01T16:16:16;5.40;94.10
11083;DHT22;5595;50.186;8.468;2023-03-01T16:18:45;5.30;94.10
11083;DHT22;5595;50.186;8.468;2023-03-01T16:21:20;5.20;93.90
11083;DHT22;5595;50.186;8.468;2023-03-01T16:23:48;5.20;93.50
11083;DHT22;5595;50.186;8.468;2023-03-01T16:26:15;5.20;93.40
11083;DHT22;5595;50.186;8.468;2023-03-01T16:28:43;5.00;93.30
11083;DHT22;5595;50.186;8.468;2023-03-01T16:31:10;5.00;93.40
11083;DHT22;5595;50.186;8.468;2023-03-01T16:33:39;5.30;93.50
11083;DHT22;5595;50.186;8.468;2023-03-01T16:36:07;4.90;93.30
11083;DHT22;5595;50.186;8.468;2023-03-01T16:38:35;4.90;93.20
11083;DHT22;5595;50.186;8.468;2023-03-01T16:41:02;4.80;93.20
11083;DHT22;5595;50.186;8.468;2023-03-01T16:43:29;4.80;93.20
11083;DHT22;5595;50.186;8.468;2023-03-01T16:45:56;4.70;93.00
11083;DHT22;5595;50.186;8.468;2023-03-01T16:48:26;4.70;92.90
11083;DHT22;5595;50.186;8.468;2023-03-01T16:50:59;4.60;93.10
11083;DHT22;5595;50.186;8.468;2023-03-01T16:53:27;4.70;93.20
11083;DHT22;5595;50.186;8.468;2023-03-01T16:55:59;4.70;93.30
11083;DHT22;5595;50.186;8.468;2023-03-01T16:58:30;4.60;93.10
11083;DHT22;5595;50.186;8.468;2023-03-01T17:01:11;4.50;93.20
11083;DHT22;5595;50.186;8.468;2023-03-01T17:03:48;4.40;93.00
11083;DHT22;5595;50.186;8.468;2023-03-01T17:06:20;4.40;92.90
11083;DHT22;5595;50.186;8.468;2023-03-01T17:08:50;4.40;93.10
11083;DHT22;5595;50.186;8.468;2023-03-01T17:11:19;4.30;93.00
11083;DHT22;5595;50.186;8.468;2023-03-01T17:13:46;6.10;94.10
11083;DHT22;5595;50.186;8.468;2023-03-01T17:16:16;4.70;93.30
11083;DHT22;5595;50.186;8.468;2023-03-01T17:18:43;4.20;93.20
11083;DHT22;5595;50.186;8.468;2023-03-01T17:21:11;4.10;93.30
11083;DHT22;5595;50.186;8.468;2023-03-01T17:23:41;4.10;93.30
11083;DHT22;5595;50.186;8.468;2023-03-01T17:26:08;4.00;93.30
11083;DHT22;5595;50.186;8.468;2023-03-01T17:28:36;4.00;93.40
11083;DHT22;5595;50.186;8.468;2023-03-01T17:31:05;4.20;93.50
11083;DHT22;5595;50.186;8.468;2023-03-01T17:33:32;3.70;93.30
11083;DHT22;5595;50.186;8.468;2023-03-01T17:35:59;4.00;93.50
11083;DHT22;5595;50.186;8.468;2023-03-01T17:38:26;4.00;94.00
11083;DHT22;5595;50.186;8.468;2023-03-01T17:40:59;3.90;93.70
11083;DHT22;5595;50.186;8.468;2023-03-01T17:43:27;4.00;93.80
11083;DHT22;5595;50.186;8.468;2023-03-01T17:45:55;3.90;93.90
11083;DHT22;5595;50.186;8.468;2023-03-01T17:48:22;3.90;94.00
11083;DHT22;5595;50.186;8.468;2023-03-01T17:50:50;3.70;94.00
11083;DHT22;5595;50.186;8.468;2023-03-01T17:53:17;3.80;94.20
11083;DHT22;5595;50.186;8.468;2023-03-01T17:55:44;3.80;94.20
11083;DHT22;5595;50.186;8.468;2023-03-01T17:58:13;4.20;94.50
11083;DHT22;5595;50.186;8.468;2023-03-01T18:00:40;3.80;94.40
11083;DHT22;5595;50.186;8.468;2023-03-01T18:03:07;3.70;94.30
11083;DHT22;5595;50.186;8.468;2023-03-01T18:05:35;3.80;94.50
11083;DHT22;5595;50.186;8.468;2023-03-01T18:08:03;3.70;94.50
11083;DHT22;5595;50.186;8.468;2023-03-01T18:10:30;4.10;94.70
11083;DHT22;5595;50.186;8.468;2023-03-01T18:12:57;3.50;94.50
11083;DHT22;5595;50.186;8.468;2023-03-01T18:15:26;3.50;94.50
11083;DHT22;5595;50.186;8.468;2023-03-01T18:17:53;3.60;94.60
11083;DHT22;5595;50.186;8.468;2023-03-01T18:20:20;3.60;94.70
11083;DHT22;5595;50.186;8.468;2023-03-01T18:22:47;3.60;94.60
11083;DHT22;5595;50.186;8.468;2023-03-01T18:25:15;4.00;94.80
11083;DHT22;5595;50.186;8.468;2023-03-01T18:27:42;3.60;94.70
11083;DHT22;5595;50.186;8.468;2023-03-01T18:30:12;3.60;94.80
11083;DHT22;5595;50.186;8.468;2023-03-01T18:32:40;3.60;94.80
11083;DHT22;5595;50.186;8.468;2023-03-01T18:35:09;3.50;94.80
11083;DHT22;5595;50.186;8.468;2023-03-01T18:37:36;3.60;94.70
11083;DHT22;5595;50.186;8.468;2023-03-01T18:40:05;3.40;94.70
11083;DHT22;5595;50.186;8.468;2023-03-01T18:42:32;3.50;94.80
11083;DHT22;5595;50.186;8.468;2023-03-01T18:44:59;3.50;94.80
11083;DHT22;5595;50.186;8.468;2023-03-01T18:47:26;3.50;94.80
11083;DHT22;5595;50.186;8.468;2023-03-01T18:49:54;3.50;94.80
11083;DHT22;5595;50.186;8.468;2023-03-01T18:52:21;3.60;94.90
11083;DHT22;5595;50.186;8.468;2023-03-01T18:54:48;3.30;94.90
11083;DHT22;5595;50.186;8.468;2023-03-01T18:57:15;3.40;95.20
11083;DHT22;5595;50.186;8.468;2023-03-01T18:59:42;3.50;95.00
11083;DHT22;5595;50.186;8.468;2023-03-01T19:02:10;3.50;95.10
11083;DHT22;5595;50.186;8.468;2023-03-01T19:04:40;3.50;95.20
11083;DHT22;5595;50.186;8.468;2023-03-01T19:07:08;3.90;95.50
11083;DHT22;5595;50.186;8.468;2023-03-01T19:09:38;3.60;95.40
11083;DHT22;5595;50.186;8.468;2023-03-01T19:12:06;3.50;95.40
11083;DHT22;5595;50.186;8.468;2023-03-01T19:14:35;3.60;95.50
11083;DHT22;5595;50.186;8.468;2023-03-01T19:17:02;3.50;95.90
11083;DHT22;5595;50.186;8.468;2023-03-01T19:19:29;3.50;95.70
11083;DHT22;5595;50.186;8.468;2023-03-01T19:21:56;3.50;95.70
11083;DHT22;5595;50.186;8.468;2023-03-01T19:24:24;3.50;95.80